Latest Weather Observations for Lajamanu

IDD60801

Issued at 10:21 am CST Monday 16 September 2019 (issued every 10 minutes, with the page automatically refreshed every 10 minutes)

About weather observations | Map of weather stations | Latest weather observations for NT | Other Formats
Station Details ID: 014829 Name: LAJAMANU AIRPORT Lat: -18.33 Lon: 130.64 Height: 315.6 m
Data from the previous 72 hours. | See also: Recent months at Lajamanu
Date/Time
CST
Temp
°C
App
Temp
°C
Dew
Point
°C
Rel
Hum
%
Delta-T
°C
Wind Press
QNH
hPa
Press
MSL
hPa
Rain since
9am
mm
Dir  Spd
km/h
Gust
km/h
Spd
kts
Gust
kts
16/10:00am 28.6 21.8 -4.7 11 14.7 N 22 33 12 18 1019.1 1017.4 0.0
16/09:30am 27.9 20.8 -4.1 12 14.2 N 24 37 13 20 1019.0 1017.3 0.0
16/09:00am 26.8 21.0 -4.9 12 13.7 N 17 24 9 13 1019.0 1017.3 0.0
16/08:49am 26.1 21.5 -4.4 13 13.3 N 11 22 6 12 1019.0 1017.3 0.0
16/08:30am 21.1 18.3 -7.4 14 11.1 CALM 0 0 0 0 1018.8 1017.1 0.0
16/08:00am 18.1 15.1 -8.9 15 9.9 CALM 0 0 0 0 1018.7 1017.0 0.0
16/07:30am 15.3 12.0 -8.8 18 8.6 SSW 2 9 1 5 1018.4 1016.7 0.0
16/07:00am 13.1 10.0 -10.0 19 7.8 CALM 0 0 0 0 1018.0 1016.3 0.0
16/06:30am 13.0 9.6 -10.1 19 7.8 NNE 2 6 1 3 1017.8 1016.1 0.0
16/06:00am 13.6 9.4 -10.2 18 8.0 N 6 7 3 4 1017.6 1015.9 0.0
16/05:30am 16.0 11.2 -10.6 15 9.2 NNE 9 13 5 7 1017.4 1015.7 0.0
16/05:00am 15.0 10.8 -9.8 17 8.6 NW 6 7 3 4 1016.7 1014.9 0.0
16/04:30am 13.4 9.2 -9.7 19 7.9 WSW 6 7 3 4 1016.4 1014.6 0.0
16/04:00am 14.2 11.1 -10.5 17 8.4 CALM 0 0 0 0 1016.4 1014.6 0.0
16/03:30am 15.9 12.8 -10.7 15 9.2 CALM 0 0 0 0 1016.3 1014.5 0.0
16/03:00am 16.3 12.9 -9.5 16 9.2 SSW 2 6 1 3 1016.5 1014.7 0.0
16/02:30am 16.2 13.2 -9.6 16 9.1 CALM 0 0 0 0 1016.6 1014.8 0.0
16/02:00am 17.3 14.3 -9.5 15 9.6 CALM 0 0 0 0 1016.6 1014.8 0.0
16/01:30am 16.9 13.5 -9.9 15 9.5 S 2 7 1 4 1016.7 1014.9 0.0
16/01:00am 18.0 13.8 -9.9 14 10.0 SE 6 7 3 4 1016.8 1015.0 0.0
16/12:30am 18.8 14.7 -8.3 15 10.2 SE 6 7 3 4 1017.0 1015.2 0.0
16/12:00am 19.0 14.8 -10.0 13 10.5 SE 6 7 3 4 1017.1 1015.3 0.0
 
Date/Time
CST
Temp
°C
App
Temp
°C
Dew
Point
°C
Rel
Hum
%
Delta-T
°C
Wind Press
QNH
hPa
Press
MSL
hPa
Rain since
9am
mm
Dir  Spd
km/h
Gust
km/h
Spd
kts
Gust
kts
15/11:30pm 20.4 16.1 -8.9 13 11.0 ESE 7 9 4 5 1017.3 1015.5 0.0
15/11:00pm 21.1 16.8 -8.4 13 11.3 SE 7 9 4 5 1017.3 1015.5 0.0
15/10:30pm 21.0 16.7 -8.4 13 11.3 ESE 7 9 4 5 1017.3 1015.5 0.0
15/10:00pm 21.5 17.2 -9.1 12 11.6 E 7 9 4 5 1017.3 1015.5 0.0
15/09:30pm 23.4 18.7 -8.7 11 12.5 E 9 11 5 6 1017.3 1015.5 0.0
15/09:00pm 22.6 18.3 -9.3 11 12.2 ESE 7 9 4 5 1017.2 1015.4 0.0
15/08:30pm 23.7 19.3 -9.7 10 12.8 ESE 7 7 4 4 1017.0 1015.2 0.0
15/08:00pm 24.8 20.5 -8.8 10 13.3 E 7 9 4 5 1016.8 1015.0 0.0
15/07:30pm 25.9 21.2 -9.4 9 14.0 ESE 9 11 5 6 1016.4 1014.6 0.0
15/07:00pm 28.9 23.7 -10.3 7 15.7 E 11 15 6 8 1016.0 1014.3 0.0
15/06:30pm 30.8 25.4 -8.9 7 16.6 E 13 20 7 11 1015.7 1014.0 0.0
15/06:00pm 32.2 25.5 -9.9 6 17.5 E 19 28 10 15 1015.5 1013.8 0.0
15/05:30pm 32.7 25.7 -7.6 7 17.5 ESE 22 33 12 18 1015.3 1013.6 0.0
15/05:00pm 33.2 26.2 -7.2 7 17.8 SE 22 33 12 18 1015.2 1013.5 0.0
15/04:30pm 33.4 27.0 -7.0 7 17.8 E 19 35 10 19 1015.2 1013.5 0.0
15/04:00pm 34.0 27.8 -8.6 6 18.4 ESE 17 32 9 17 1015.3 1013.6 0.0
15/03:30pm 34.5 28.0 -6.3 7 18.4 E 20 41 11 22 1015.5 1013.8 0.0
15/03:00pm 34.1 27.3 -4.8 8 17.9 ENE 22 39 12 21 1015.8 1014.1 0.0
15/02:30pm 33.7 26.4 -6.8 7 18.0 E 24 39 13 21 1016.4 1014.6 0.0
15/02:00pm 33.4 26.4 -7.0 7 17.8 ENE 22 39 12 21 1016.7 1014.9 0.0
15/01:30pm 33.7 27.3 -6.8 7 18.0 E 19 32 10 17 1017.2 1015.4 0.0
15/01:00pm 32.8 25.6 -5.7 8 17.3 NE 24 35 13 19 1017.8 1016.1 0.0
15/12:30pm 32.4 26.0 -4.5 9 16.8 E 20 33 11 18 1018.5 1016.8 0.0
15/12:00pm 31.5 25.2 -3.8 10 16.2 ENE 20 32 11 17 1019.0 1017.3 0.0
15/11:30am 31.0 25.7 -0.6 13 15.2 ENE 17 32 9 17 1019.7 1017.9 0.0
15/11:00am 28.7 23.8 -0.5 15 13.9 NE 15 20 8 11 1020.1 1018.3 0.0
15/10:30am 27.7 22.9 0.5 17 13.0 NNE 15 24 8 13 1020.4 1018.7 0.0
15/10:00am 26.9 22.2 0.6 18 12.6 NNE 15 24 8 13 1020.7 1019.0 0.0
15/09:30am 25.4 19.8 0.1 19 11.8 NNE 19 28 10 15 1020.9 1019.2 0.0
15/09:00am 24.2 20.0 -4.0 15 12.1 NE 9 20 5 11 1021.0 1019.3 0.0
15/08:30am 21.9 17.5 -5.9 15 11.3 ENE 9 11 5 6 1020.9 1019.2 0.0
15/08:00am 19.8 14.9 -7.5 15 10.5 E 11 17 6 9 1020.7 1019.0 0.0
15/07:30am 18.2 13.7 -7.2 17 9.7 E 9 11 5 6 1020.2 1018.5 0.0
15/07:00am 13.4 8.7 -9.1 20 7.8 E 9 11 5 6 1019.6 1017.8 0.0
15/06:30am 15.2 10.6 -7.6 20 8.3 E 9 11 5 6 1019.1 1017.4 0.0
15/06:00am 14.2 9.2 -8.4 20 8.0 E 11 13 6 7 1018.7 1017.0 0.0
15/05:30am 16.1 11.2 -7.5 19 8.7 ENE 11 13 6 7 1018.5 1016.8 0.0
15/05:00am 13.9 9.9 -8.0 21 7.8 ESE 6 7 3 4 1017.7 1016.0 0.0
15/04:30am 15.5 11.8 -8.0 19 8.5 E 4 7 2 4 1017.4 1015.7 0.0
15/04:00am 16.1 12.0 -8.2 18 8.9 SE 6 7 3 4 1017.1 1015.3 0.0
15/03:30am 17.7 13.6 -6.9 18 9.4 ESE 7 11 4 6 1017.2 1015.4 0.0
15/03:00am 15.7 11.7 -7.8 19 8.6 SSE 6 7 3 4 1017.4 1015.7 0.0
15/02:30am 16.3 12.3 -7.3 19 8.8 SSE 6 7 3 4 1017.7 1016.0 0.0
15/02:00am 16.9 13.3 -7.5 18 9.1 SSE 4 7 2 4 1017.8 1016.1 0.0
15/01:30am 17.3 13.7 -7.2 18 9.2 S 4 6 2 3 1017.9 1016.2 0.0
15/01:00am 17.4 13.8 -7.9 17 9.4 S 4 6 2 3 1018.1 1016.4 0.0
15/12:30am 18.0 13.9 -8.2 16 9.7 SSE 6 7 3 4 1018.2 1016.5 0.0
15/12:00am 18.5 14.2 -8.6 15 10.0 SE 7 7 4 4 1018.2 1016.5 0.0
 
Date/Time
CST
Temp
°C
App
Temp
°C
Dew
Point
°C
Rel
Hum
%
Delta-T
°C
Wind Press
QNH
hPa
Press
MSL
hPa
Rain since
9am
mm
Dir  Spd
km/h
Gust
km/h
Spd
kts
Gust
kts
14/11:30pm 19.8 15.5 -8.4 14 10.7 ESE 7 9 4 5 1018.3 1016.6 0.0
14/11:00pm 19.7 15.6 -8.5 14 10.6 SE 6 6 3 3 1018.4 1016.7 0.0
14/10:30pm 21.5 16.9 -8.0 13 11.4 E 9 9 5 5 1018.5 1016.8 0.0
14/10:00pm 20.9 16.8 -8.5 13 11.2 ESE 6 7 3 4 1018.5 1016.8 0.0
14/09:30pm 21.5 17.4 -9.1 12 11.6 ESE 6 7 3 4 1018.4 1016.7 0.0
14/09:00pm 21.9 17.2 -8.7 12 11.8 E 9 11 5 6 1018.4 1016.7 0.0
14/08:30pm 23.4 18.7 -8.7 11 12.5 E 9 11 5 6 1018.2 1016.5 0.0
14/08:00pm 24.9 20.2 -8.8 10 13.4 E 9 11 5 6 1018.1 1016.4 0.0
14/07:30pm 27.6 22.2 -8.1 9 14.7 E 13 15 7 8 1017.7 1016.0 0.0
14/07:00pm 29.1 22.9 -8.5 8 15.6 E 17 22 9 12 1017.4 1015.7 0.0
14/06:30pm 30.4 23.9 -7.5 8 16.2 E 19 26 10 14 1017.0 1015.2 0.0
14/06:00pm 31.7 25.6 -8.3 7 17.0 ESE 17 24 9 13 1016.8 1015.0 0.0
14/05:30pm 32.3 25.2 -7.8 7 17.3 ESE 22 33 12 18 1016.7 1014.9 0.0
14/05:00pm 32.5 24.7 -7.7 7 17.4 E 26 39 14 21 1016.7 1014.9 0.0
14/04:30pm 33.0 25.2 -7.3 7 17.6 ESE 26 44 14 24 1016.8 1015.0 0.0
14/04:00pm 33.0 25.6 -7.3 7 17.6 ENE 24 35 13 19 1016.9 1015.1 0.0
14/03:30pm 32.6 24.8 -7.6 7 17.4 E 26 39 14 21 1017.1 1015.3 0.0
14/03:00pm 33.1 24.9 -7.3 7 17.7 ESE 28 43 15 23 1017.3 1015.5 0.0
14/02:30pm 32.4 23.8 -7.8 7 17.3 ESE 30 48 16 26 1017.9 1016.2 0.0
14/02:25pm 33.2 25.1 -7.2 7 17.8 ESE 28 48 15 26 1017.9 1016.2 0.0
14/02:00pm 33.1 25.1 -5.5 8 17.4 E 28 37 15 20 1018.3 1016.6 0.0
14/01:30pm 32.3 24.3 -6.1 8 17.0 ENE 28 46 15 25 1019.1 1017.4 0.0
14/01:24pm 31.7 24.2 -5.0 9 16.5 ENE 26 46 14 25 1019.0 1017.3 0.0
14/01:00pm 31.7 24.5 -5.0 9 16.5 E 24 39 13 21 1019.9 1018.1 0.0
14/12:33pm 31.8 23.9 -4.9 9 16.6 ENE 28 48 15 26 1020.4 1018.7 0.0
14/12:30pm 31.7 23.8 -5.0 9 16.5 ENE 28 41 15 22 1020.4 1018.7 0.0
14/12:00pm 31.5 23.0 -6.7 8 16.6 E 30 48 16 26 1021.0 1019.3 0.0
14/11:59am 31.7 23.2 -6.6 8 16.8 E 30 48 16 26 1021.0 1019.3 0.0
14/11:30am 31.2 22.1 -6.9 8 16.5 E 33 46 18 25 1021.6 1019.9 0.0
14/11:00am 30.1 22.3 -7.7 8 16.0 E 26 39 14 21 1021.9 1020.2 0.0
14/10:30am 28.9 20.3 -8.6 8 15.4 E 30 41 16 22 1022.3 1020.6 0.0
14/10:00am 27.6 18.5 -9.6 8 14.9 ENE 32 44 17 24 1022.6 1020.9 0.0
14/09:30am 26.2 17.9 -9.1 9 14.0 E 28 43 15 23 1022.8 1021.0 0.0
14/09:00am 24.5 17.2 -10.4 9 13.3 E 22 30 12 16 1022.5 1020.8 0.0
14/08:30am 22.6 15.8 -11.8 9 12.5 E 19 32 10 17 1022.3 1020.6 0.0
14/08:00am 20.1 14.0 -12.4 10 11.4 ESE 15 20 8 11 1021.8 1020.1 0.0
14/07:30am 17.1 11.4 -12.5 12 9.9 ESE 13 17 7 9 1021.5 1019.8 0.0
14/07:00am 13.9 8.5 -13.1 14 8.6 ESE 11 13 6 7 1021.1 1019.4 0.0
14/06:30am 14.0 8.6 -13.9 13 8.7 ESE 11 13 6 7 1020.7 1019.0 0.0
14/06:00am 14.1 8.8 -13.0 14 8.6 ESE 11 13 6 7 1020.5 1018.8 0.0
14/05:30am 13.5 8.5 -13.4 14 8.4 ESE 9 11 5 6 1020.3 1018.6 0.0
14/05:00am 14.2 9.2 -13.8 13 8.8 ESE 9 9 5 5 1020.0 1018.2 0.0
14/04:30am 14.6 9.6 -13.5 13 8.9 ESE 9 11 5 6 1019.8 1018.0 0.0
14/04:00am 14.3 9.3 -13.7 13 8.9 ESE 9 9 5 5 1019.7 1017.9 0.0
14/03:30am 14.7 9.7 -13.4 13 9.0 ESE 9 11 5 6 1019.7 1017.9 0.0
14/03:00am 14.9 10.3 -13.2 13 9.0 SE 7 9 4 5 1019.8 1018.0 0.0
14/02:30am 15.6 11.0 -12.7 13 9.3 SE 7 9 4 5 1019.9 1018.1 0.0
14/02:00am 16.6 11.6 -12.9 12 9.8 ESE 9 11 5 6 1020.1 1018.3 0.0
14/01:30am 17.3 12.4 -12.3 12 10.0 SE 9 11 5 6 1020.1 1018.3 0.0
14/01:00am 17.4 12.9 -12.3 12 10.1 ESE 7 9 4 5 1020.3 1018.6 0.0
14/12:30am 17.4 12.5 -12.3 12 10.1 ESE 9 11 5 6 1020.3 1018.6 0.0
14/12:00am 17.7 12.8 -12.0 12 10.2 ESE 9 9 5 5 1020.3 1018.6 0.0
 
Date/Time
CST
Temp
°C
App
Temp
°C
Dew
Point
°C
Rel
Hum
%
Delta-T
°C
Wind Press
QNH
hPa
Press
MSL
hPa
Rain since
9am
mm
Dir  Spd
km/h
Gust
km/h
Spd
kts
Gust
kts
13/11:30pm 18.4 13.9 -11.5 12 10.4 ESE 7 9 4 5 1020.4 1018.7 0.0
13/11:00pm 19.0 14.2 -11.0 12 10.7 ESE 9 11 5 6 1020.2 1018.5 0.0
13/10:30pm 19.3 14.5 -10.8 12 10.8 SE 9 9 5 5 1020.2 1018.5 0.0
13/10:00pm 19.6 14.9 -9.5 13 10.8 SE 9 11 5 6 1020.2 1018.5 0.0
13/09:30pm 20.5 15.8 -9.8 12 11.2 ESE 9 9 5 5 1020.1 1018.3 0.0
13/09:00pm 21.3 17.0 -9.2 12 11.5 ESE 7 9 4 5 1020.0 1018.2 0.0
13/08:30pm 22.4 18.1 -9.5 11 12.1 ESE 7 9 4 5 1019.7 1017.9 0.0
13/08:00pm 24.8 19.6 -10.2 9 13.5 ESE 11 13 6 7 1019.3 1017.6 0.0
13/07:30pm 27.1 21.2 -9.9 8 14.7 ESE 15 20 8 11 1019.0 1017.3 0.0
13/07:00pm 28.3 21.7 -9.1 8 15.2 ESE 19 24 10 13 1018.7 1017.0 0.0
13/06:30pm 29.4 22.6 -9.9 7 15.9 ESE 20 30 11 16 1018.3 1016.6 0.0
13/06:00pm 30.5 23.7 -9.1 7 16.4 E 20 28 11 15 1018.1 1016.4 0.0
13/05:30pm 31.3 23.6 -10.5 6 17.1 ESE 24 37 13 20 1018.2 1016.5 0.0
13/05:00pm 31.7 24.1 -10.2 6 17.3 ESE 24 37 13 20 1018.2 1016.5 0.0
13/04:30pm 32.1 24.0 -12.2 5 17.7 E 26 37 14 20 1018.3 1016.6 0.0
13/04:00pm 32.0 24.2 -12.3 5 17.7 ESE 24 39 13 21 1018.4 1016.7 0.0
13/03:30pm 32.2 24.4 -12.2 5 17.8 E 24 35 13 19 1018.7 1017.0 0.0
13/03:00pm 31.9 25.0 -10.1 6 17.4 E 20 37 11 20 1019.0 1017.3 0.0
13/02:30pm 31.5 23.9 -10.4 6 17.2 ESE 24 41 13 22 1019.5 1017.7 0.0
13/02:00pm 31.1 24.2 -10.7 6 17.0 ENE 20 32 11 17 1019.9 1018.1 0.0
13/01:30pm 31.0 23.0 -10.7 6 16.9 E 26 41 14 22 1020.6 1018.9 0.0
13/01:00pm 31.0 23.1 -8.8 7 16.7 ENE 26 41 14 22 1021.0 1019.3 0.0
13/12:30pm 30.6 21.5 -9.1 7 16.5 ESE 32 44 17 24 1021.3 1019.6 0.0
13/12:01pm 29.6 21.7 -5.2 10 15.4 E 28 46 15 25 1021.7 1020.0 0.0
13/12:00pm 29.5 21.7 -4.0 11 15.0 E 28 43 15 23 1021.7 1020.0 0.0
13/11:30am 29.0 20.6 -2.2 13 14.4 E 32 41 17 22 1022.3 1020.6 0.0
13/11:00am 28.0 20.8 -2.0 14 13.8 E 26 37 14 20 1022.8 1021.0 0.0
13/10:48am 27.3 18.8 -1.6 15 13.4 E 33 52 18 28 1023.0 1021.2 0.0
13/10:30am 27.0 19.4 0.7 18 12.6 ENE 30 44 16 24 1023.1 1021.4 0.0

Other formats

Comma delimited format used in spreadsheet applications
http://www.bom.gov.au/fwo/IDD60801/IDD60801.94231.axf

JavaScript Object Notation format (JSON) in row-major order
http://www.bom.gov.au/fwo/IDD60801/IDD60801.94231.json

Data quality

Most of these data are generated automatically and are frequently updated. Quality checks on data are not normally performed. It is possible for incorrect values to appear. Refer to information at About Latest Weather Observations and please check the disclaimer before using these data.